sensor_id;sensor_type;location;lat;lon;timestamp;temperature;humidity
29775;DHT22;16676;51.202;6.774;2024-01-11T00:03:34;19.30;54.30
29775;DHT22;16676;51.202;6.774;2024-01-11T00:07:36;19.20;54.40
29775;DHT22;16676;51.202;6.774;2024-01-11T00:11:38;19.20;54.40
29775;DHT22;16676;51.202;6.774;2024-01-11T00:15:40;19.20;54.60
29775;DHT22;16676;51.202;6.774;2024-01-11T00:19:43;19.10;54.60
29775;DHT22;16676;51.202;6.774;2024-01-11T00:23:45;19.10;54.70
29775;DHT22;16676;51.202;6.774;2024-01-11T00:27:47;19.00;54.80
29775;DHT22;16676;51.202;6.774;2024-01-11T00:31:49;19.00;54.80
29775;DHT22;16676;51.202;6.774;2024-01-11T00:35:52;19.00;55.00
29775;DHT22;16676;51.202;6.774;2024-01-11T00:39:54;18.90;55.10
29775;DHT22;16676;51.202;6.774;2024-01-11T00:43:56;18.90;55.10
29775;DHT22;16676;51.202;6.774;2024-01-11T00:47:58;18.90;55.10
29775;DHT22;16676;51.202;6.774;2024-01-11T00:52:01;18.80;55.20
29775;DHT22;16676;51.202;6.774;2024-01-11T00:56:03;18.80;55.30
29775;DHT22;16676;51.202;6.774;2024-01-11T01:00:07;18.80;55.30
29775;DHT22;16676;51.202;6.774;2024-01-11T01:04:09;18.70;55.30
29775;DHT22;16676;51.202;6.774;2024-01-11T01:08:12;18.70;55.40
29775;DHT22;16676;51.202;6.774;2024-01-11T01:12:14;18.60;55.40
29775;DHT22;16676;51.202;6.774;2024-01-11T01:16:16;18.60;55.40
29775;DHT22;16676;51.202;6.774;2024-01-11T01:20:18;18.60;55.50
29775;DHT22;16676;51.202;6.774;2024-01-11T01:24:21;18.60;55.50
29775;DHT22;16676;51.202;6.774;2024-01-11T01:28:23;18.60;56.20
29775;DHT22;16676;51.202;6.774;2024-01-11T01:32:25;18.50;55.70
29775;DHT22;16676;51.202;6.774;2024-01-11T01:36:27;18.50;55.60
29775;DHT22;16676;51.202;6.774;2024-01-11T01:40:31;18.50;55.60
29775;DHT22;16676;51.202;6.774;2024-01-11T01:44:33;18.40;55.70
29775;DHT22;16676;51.202;6.774;2024-01-11T01:48:35;18.40;55.80
29775;DHT22;16676;51.202;6.774;2024-01-11T01:52:39;18.30;56.00
29775;DHT22;16676;51.202;6.774;2024-01-11T01:56:43;18.30;56.00
29775;DHT22;16676;51.202;6.774;2024-01-11T02:00:45;18.30;56.10
29775;DHT22;16676;51.202;6.774;2024-01-11T02:04:49;18.30;56.10
29775;DHT22;16676;51.202;6.774;2024-01-11T02:08:52;18.20;56.10
29775;DHT22;16676;51.202;6.774;2024-01-11T02:12:55;18.20;56.10
29775;DHT22;16676;51.202;6.774;2024-01-11T02:16:57;18.20;56.10
29775;DHT22;16676;51.202;6.774;2024-01-11T02:20:59;18.10;56.20
29775;DHT22;16676;51.202;6.774;2024-01-11T02:25:04;18.10;56.40
29775;DHT22;16676;51.202;6.774;2024-01-11T02:29:06;18.10;56.40
29775;DHT22;16676;51.202;6.774;2024-01-11T02:33:08;18.10;56.50
29775;DHT22;16676;51.202;6.774;2024-01-11T02:37:11;18.00;56.40
29775;DHT22;16676;51.202;6.774;2024-01-11T02:41:14;18.00;56.20
29775;DHT22;16676;51.202;6.774;2024-01-11T02:45:17;18.00;56.50
29775;DHT22;16676;51.202;6.774;2024-01-11T02:49:20;17.90;56.50
29775;DHT22;16676;51.202;6.774;2024-01-11T02:53:22;17.90;56.50
29775;DHT22;16676;51.202;6.774;2024-01-11T02:57:25;17.90;56.70
29775;DHT22;16676;51.202;6.774;2024-01-11T03:01:27;17.80;56.70
29775;DHT22;16676;51.202;6.774;2024-01-11T03:05:29;17.80;56.70
29775;DHT22;16676;51.202;6.774;2024-01-11T03:09:31;17.70;56.70
29775;DHT22;16676;51.202;6.774;2024-01-11T03:13:34;17.70;56.50
29775;DHT22;16676;51.202;6.774;2024-01-11T03:17:36;17.70;56.80
29775;DHT22;16676;51.202;6.774;2024-01-11T03:21:42;17.70;56.70
29775;DHT22;16676;51.202;6.774;2024-01-11T03:25:44;17.70;56.90
29775;DHT22;16676;51.202;6.774;2024-01-11T03:29:47;17.60;56.80
29775;DHT22;16676;51.202;6.774;2024-01-11T03:33:50;17.60;57.00
29775;DHT22;16676;51.202;6.774;2024-01-11T03:37:51;17.60;56.90
29775;DHT22;16676;51.202;6.774;2024-01-11T03:41:53;17.50;56.80
29775;DHT22;16676;51.202;6.774;2024-01-11T03:45:56;17.50;57.00
29775;DHT22;16676;51.202;6.774;2024-01-11T03:49:58;17.50;56.90
29775;DHT22;16676;51.202;6.774;2024-01-11T03:54:00;17.50;57.10
29775;DHT22;16676;51.202;6.774;2024-01-11T03:58:02;17.50;57.10
29775;DHT22;16676;51.202;6.774;2024-01-11T04:02:05;17.50;57.00
29775;DHT22;16676;51.202;6.774;2024-01-11T04:06:08;17.40;57.00
29775;DHT22;16676;51.202;6.774;2024-01-11T04:10:10;17.40;57.10
29775;DHT22;16676;51.202;6.774;2024-01-11T04:14:12;17.30;57.20
29775;DHT22;16676;51.202;6.774;2024-01-11T04:18:15;17.40;57.40
29775;DHT22;16676;51.202;6.774;2024-01-11T04:22:17;17.30;57.30
29775;DHT22;16676;51.202;6.774;2024-01-11T04:26:19;17.30;57.30
29775;DHT22;16676;51.202;6.774;2024-01-11T04:30:21;17.30;57.40
29775;DHT22;16676;51.202;6.774;2024-01-11T04:34:24;17.30;57.60
29775;DHT22;16676;51.202;6.774;2024-01-11T04:38:26;17.30;57.60
29775;DHT22;16676;51.202;6.774;2024-01-11T04:42:27;17.30;57.60
29775;DHT22;16676;51.202;6.774;2024-01-11T04:46:29;17.30;57.60
29775;DHT22;16676;51.202;6.774;2024-01-11T04:50:32;17.40;57.80
29775;DHT22;16676;51.202;6.774;2024-01-11T04:54:34;17.50;58.20
29775;DHT22;16676;51.202;6.774;2024-01-11T04:58:38;17.60;58.20
29775;DHT22;16676;51.202;6.774;2024-01-11T05:02:40;17.70;57.90
29775;DHT22;16676;51.202;6.774;2024-01-11T05:06:43;17.80;57.80
29775;DHT22;16676;51.202;6.774;2024-01-11T05:10:45;17.90;57.70
29775;DHT22;16676;51.202;6.774;2024-01-11T05:14:47;18.00;57.40
29775;DHT22;16676;51.202;6.774;2024-01-11T05:18:50;18.10;57.20
29775;DHT22;16676;51.202;6.774;2024-01-11T05:22:53;18.10;57.00
29775;DHT22;16676;51.202;6.774;2024-01-11T05:26:55;18.20;56.90
29775;DHT22;16676;51.202;6.774;2024-01-11T05:30:57;18.30;56.70
29775;DHT22;16676;51.202;6.774;2024-01-11T05:34:58;18.30;56.60
29775;DHT22;16676;51.202;6.774;2024-01-11T05:39:02;18.30;56.50
29775;DHT22;16676;51.202;6.774;2024-01-11T05:43:04;18.30;56.60
29775;DHT22;16676;51.202;6.774;2024-01-11T05:47:05;18.30;56.40
29775;DHT22;16676;51.202;6.774;2024-01-11T05:51:08;18.30;56.40
29775;DHT22;16676;51.202;6.774;2024-01-11T05:55:11;18.30;56.30
29775;DHT22;16676;51.202;6.774;2024-01-11T05:59:13;18.30;56.30
29775;DHT22;16676;51.202;6.774;2024-01-11T06:03:15;18.30;56.20
29775;DHT22;16676;51.202;6.774;2024-01-11T06:07:17;18.30;56.90
29775;DHT22;16676;51.202;6.774;2024-01-11T06:11:20;18.30;56.40
29775;DHT22;16676;51.202;6.774;2024-01-11T06:15:22;18.30;56.30
29775;DHT22;16676;51.202;6.774;2024-01-11T06:19:24;18.30;56.40
29775;DHT22;16676;51.202;6.774;2024-01-11T06:23:26;18.20;56.40
29775;DHT22;16676;51.202;6.774;2024-01-11T06:27:29;18.30;56.40
29775;DHT22;16676;51.202;6.774;2024-01-11T06:31:31;18.20;56.60
29775;DHT22;16676;51.202;6.774;2024-01-11T06:35:33;18.20;56.40
29775;DHT22;16676;51.202;6.774;2024-01-11T06:39:34;18.20;56.60
29775;DHT22;16676;51.202;6.774;2024-01-11T06:43:38;18.10;56.50
29775;DHT22;16676;51.202;6.774;2024-01-11T06:47:39;18.10;56.60
29775;DHT22;16676;51.202;6.774;2024-01-11T06:51:41;18.10;56.60
29775;DHT22;16676;51.202;6.774;2024-01-11T06:55:43;18.10;56.50
29775;DHT22;16676;51.202;6.774;2024-01-11T06:59:46;18.10;56.50
29775;DHT22;16676;51.202;6.774;2024-01-11T07:03:49;18.10;56.50
29775;DHT22;16676;51.202;6.774;2024-01-11T07:07:51;18.00;56.50
29775;DHT22;16676;51.202;6.774;2024-01-11T07:11:53;18.00;56.30
29775;DHT22;16676;51.202;6.774;2024-01-11T07:15:57;17.60;48.00
29775;DHT22;16676;51.202;6.774;2024-01-11T07:19:59;15.70;39.50
29775;DHT22;16676;51.202;6.774;2024-01-11T07:24:01;15.60;47.50
29775;DHT22;16676;51.202;6.774;2024-01-11T07:28:03;16.20;48.60
29775;DHT22;16676;51.202;6.774;2024-01-11T07:32:07;16.60;48.30
29775;DHT22;16676;51.202;6.774;2024-01-11T07:36:08;17.00;48.60
29775;DHT22;16676;51.202;6.774;2024-01-11T07:40:11;17.30;49.10
29775;DHT22;16676;51.202;6.774;2024-01-11T07:44:14;17.60;48.90
29775;DHT22;16676;51.202;6.774;2024-01-11T07:48:17;17.80;49.40
29775;DHT22;16676;51.202;6.774;2024-01-11T07:52:19;18.00;49.70
29775;DHT22;16676;51.202;6.774;2024-01-11T07:56:21;18.20;50.10
29775;DHT22;16676;51.202;6.774;2024-01-11T08:00:24;18.40;50.60
29775;DHT22;16676;51.202;6.774;2024-01-11T08:04:27;18.60;50.90
29775;DHT22;16676;51.202;6.774;2024-01-11T08:08:29;18.70;51.00
29775;DHT22;16676;51.202;6.774;2024-01-11T08:12:31;18.80;51.10
29775;DHT22;16676;51.202;6.774;2024-01-11T08:16:33;18.90;51.20
29775;DHT22;16676;51.202;6.774;2024-01-11T08:20:38;19.10;51.10
29775;DHT22;16676;51.202;6.774;2024-01-11T08:24:40;19.30;51.10
29775;DHT22;16676;51.202;6.774;2024-01-11T08:28:42;19.60;51.00
29775;DHT22;16676;51.202;6.774;2024-01-11T08:32:44;19.80;50.80
29775;DHT22;16676;51.202;6.774;2024-01-11T08:36:48;20.10;50.70
29775;DHT22;16676;51.202;6.774;2024-01-11T08:40:50;20.40;50.70
29775;DHT22;16676;51.202;6.774;2024-01-11T08:44:51;20.60;50.60
29775;DHT22;16676;51.202;6.774;2024-01-11T08:48:54;20.80;50.70
29775;DHT22;16676;51.202;6.774;2024-01-11T08:52:58;20.90;50.40
29775;DHT22;16676;51.202;6.774;2024-01-11T08:57:00;21.20;50.40
29775;DHT22;16676;51.202;6.774;2024-01-11T09:01:02;21.30;50.30
29775;DHT22;16676;51.202;6.774;2024-01-11T09:05:05;21.40;50.20
29775;DHT22;16676;51.202;6.774;2024-01-11T09:09:10;21.50;50.10
29775;DHT22;16676;51.202;6.774;2024-01-11T09:13:14;21.60;50.10
29775;DHT22;16676;51.202;6.774;2024-01-11T09:17:16;21.60;49.90
29775;DHT22;16676;51.202;6.774;2024-01-11T09:21:18;21.70;49.80
29775;DHT22;16676;51.202;6.774;2024-01-11T09:25:21;21.80;49.80
29775;DHT22;16676;51.202;6.774;2024-01-11T09:29:24;21.80;50.10
29775;DHT22;16676;51.202;6.774;2024-01-11T09:33:26;21.80;50.20
29775;DHT22;16676;51.202;6.774;2024-01-11T09:37:28;21.80;50.30
29775;DHT22;16676;51.202;6.774;2024-01-11T09:41:32;21.70;50.60
29775;DHT22;16676;51.202;6.774;2024-01-11T09:45:34;21.70;50.80
29775;DHT22;16676;51.202;6.774;2024-01-11T09:49:40;21.70;51.10
29775;DHT22;16676;51.202;6.774;2024-01-11T09:53:43;21.70;51.40
29775;DHT22;16676;51.202;6.774;2024-01-11T09:57:48;21.70;51.60
29775;DHT22;16676;51.202;6.774;2024-01-11T10:01:50;21.70;51.80
29775;DHT22;16676;51.202;6.774;2024-01-11T10:05:57;21.60;51.90
29775;DHT22;16676;51.202;6.774;2024-01-11T10:09:59;21.70;52.00
29775;DHT22;16676;51.202;6.774;2024-01-11T10:14:02;21.60;52.20
29775;DHT22;16676;51.202;6.774;2024-01-11T10:18:06;21.60;53.00
29775;DHT22;16676;51.202;6.774;2024-01-11T10:22:08;21.60;52.50
29775;DHT22;16676;51.202;6.774;2024-01-11T10:26:15;21.60;52.70
29775;DHT22;16676;51.202;6.774;2024-01-11T10:30:18;21.60;52.90
29775;DHT22;16676;51.202;6.774;2024-01-11T10:34:23;21.60;53.00
29775;DHT22;16676;51.202;6.774;2024-01-11T10:38:26;21.50;53.20
29775;DHT22;16676;51.202;6.774;2024-01-11T10:42:29;21.50;53.50
29775;DHT22;16676;51.202;6.774;2024-01-11T10:46:34;21.50;53.60
29775;DHT22;16676;51.202;6.774;2024-01-11T10:50:37;21.50;53.70
29775;DHT22;16676;51.202;6.774;2024-01-11T10:54:43;21.40;53.90
29775;DHT22;16676;51.202;6.774;2024-01-11T10:58:46;21.50;53.70
29775;DHT22;16676;51.202;6.774;2024-01-11T11:02:51;21.40;53.90
29775;DHT22;16676;51.202;6.774;2024-01-11T11:06:55;21.50;54.10
29775;DHT22;16676;51.202;6.774;2024-01-11T11:10:59;21.40;54.20
29775;DHT22;16676;51.202;6.774;2024-01-11T11:15:01;21.40;54.30
29775;DHT22;16676;51.202;6.774;2024-01-11T11:19:06;21.40;54.30
29775;DHT22;16676;51.202;6.774;2024-01-11T11:23:09;21.50;54.40
29775;DHT22;16676;51.202;6.774;2024-01-11T11:27:13;21.50;54.40
29775;DHT22;16676;51.202;6.774;2024-01-11T11:31:34;21.50;54.50
29775;DHT22;16676;51.202;6.774;2024-01-11T11:35:38;21.50;54.60
29775;DHT22;16676;51.202;6.774;2024-01-11T11:39:41;21.50;54.70
29775;DHT22;16676;51.202;6.774;2024-01-11T11:43:47;21.50;54.70
29775;DHT22;16676;51.202;6.774;2024-01-11T11:47:49;21.50;54.80
29775;DHT22;16676;51.202;6.774;2024-01-11T11:51:56;21.50;54.90
29775;DHT22;16676;51.202;6.774;2024-01-11T11:55:58;20.60;38.20
29775;DHT22;16676;51.202;6.774;2024-01-11T12:00:00;19.30;35.80
29775;DHT22;16676;51.202;6.774;2024-01-11T12:09:24;18.20;42.00
29775;DHT22;16676;51.202;6.774;2024-01-11T12:13:47;18.70;40.60
29775;DHT22;16676;51.202;6.774;2024-01-11T12:18:09;19.00;41.80
29775;DHT22;16676;51.202;6.774;2024-01-11T12:22:31;19.20;42.30
29775;DHT22;16676;51.202;6.774;2024-01-11T12:26:34;19.30;42.50
29775;DHT22;16676;51.202;6.774;2024-01-11T12:30:36;19.40;42.80
29775;DHT22;16676;51.202;6.774;2024-01-11T12:34:39;19.50;43.10
29775;DHT22;16676;51.202;6.774;2024-01-11T12:38:46;19.50;43.60
29775;DHT22;16676;51.202;6.774;2024-01-11T12:42:50;19.50;43.80
29775;DHT22;16676;51.202;6.774;2024-01-11T12:46:52;19.60;44.20
29775;DHT22;16676;51.202;6.774;2024-01-11T12:50:54;19.70;44.60
29775;DHT22;16676;51.202;6.774;2024-01-11T12:54:56;19.90;45.10
29775;DHT22;16676;51.202;6.774;2024-01-11T12:59:07;20.00;45.60
29775;DHT22;16676;51.202;6.774;2024-01-11T13:03:10;20.10;46.10
29775;DHT22;16676;51.202;6.774;2024-01-11T13:07:12;20.10;46.60
29775;DHT22;16676;51.202;6.774;2024-01-11T13:11:17;20.10;47.00
29775;DHT22;16676;51.202;6.774;2024-01-11T13:15:22;20.20;47.30
29775;DHT22;16676;51.202;6.774;2024-01-11T13:19:25;20.20;47.60
29775;DHT22;16676;51.202;6.774;2024-01-11T13:23:27;20.30;47.90
29775;DHT22;16676;51.202;6.774;2024-01-11T13:27:28;20.30;48.10
29775;DHT22;16676;51.202;6.774;2024-01-11T13:31:33;20.40;48.30
29775;DHT22;16676;51.202;6.774;2024-01-11T13:35:35;20.40;48.70
29775;DHT22;16676;51.202;6.774;2024-01-11T13:39:37;20.40;48.90
29775;DHT22;16676;51.202;6.774;2024-01-11T13:43:39;20.50;49.00
29775;DHT22;16676;51.202;6.774;2024-01-11T13:47:42;20.50;49.30
29775;DHT22;16676;51.202;6.774;2024-01-11T13:51:44;20.50;49.40
29775;DHT22;16676;51.202;6.774;2024-01-11T13:55:48;20.50;49.50
29775;DHT22;16676;51.202;6.774;2024-01-11T13:59:50;20.50;49.70
29775;DHT22;16676;51.202;6.774;2024-01-11T14:03:53;20.50;49.90
29775;DHT22;16676;51.202;6.774;2024-01-11T14:07:55;20.50;50.00
29775;DHT22;16676;51.202;6.774;2024-01-11T14:11:59;20.50;50.20
29775;DHT22;16676;51.202;6.774;2024-01-11T14:16:01;20.50;50.50
29775;DHT22;16676;51.202;6.774;2024-01-11T14:20:05;20.50;50.70
29775;DHT22;16676;51.202;6.774;2024-01-11T14:24:12;20.50;50.80
29775;DHT22;16676;51.202;6.774;2024-01-11T14:28:14;20.50;50.90
29775;DHT22;16676;51.202;6.774;2024-01-11T14:32:16;20.50;51.00
29775;DHT22;16676;51.202;6.774;2024-01-11T14:36:20;20.50;51.10
29775;DHT22;16676;51.202;6.774;2024-01-11T14:40:22;20.50;51.20
29775;DHT22;16676;51.202;6.774;2024-01-11T14:44:24;20.50;51.30
29775;DHT22;16676;51.202;6.774;2024-01-11T14:48:26;20.50;51.50
29775;DHT22;16676;51.202;6.774;2024-01-11T14:52:32;20.50;51.70
29775;DHT22;16676;51.202;6.774;2024-01-11T14:56:34;20.40;51.90
29775;DHT22;16676;51.202;6.774;2024-01-11T15:00:36;20.40;52.10
29775;DHT22;16676;51.202;6.774;2024-01-11T15:04:38;20.40;52.30
29775;DHT22;16676;51.202;6.774;2024-01-11T15:08:41;20.40;53.00
29775;DHT22;16676;51.202;6.774;2024-01-11T15:12:43;20.30;52.60
29775;DHT22;16676;51.202;6.774;2024-01-11T15:16:45;20.30;52.70
29775;DHT22;16676;51.202;6.774;2024-01-11T15:20:48;20.30;52.80
29775;DHT22;16676;51.202;6.774;2024-01-11T15:24:52;20.20;53.10
29775;DHT22;16676;51.202;6.774;2024-01-11T15:28:54;20.20;53.30
29775;DHT22;16676;51.202;6.774;2024-01-11T15:32:56;20.20;53.20
29775;DHT22;16676;51.202;6.774;2024-01-11T15:36:58;20.10;53.30
29775;DHT22;16676;51.202;6.774;2024-01-11T15:41:01;20.10;53.50
29775;DHT22;16676;51.202;6.774;2024-01-11T15:45:04;20.10;53.60
29775;DHT22;16676;51.202;6.774;2024-01-11T15:49:07;20.10;53.70
29775;DHT22;16676;51.202;6.774;2024-01-11T15:53:08;20.10;53.80
29775;DHT22;16676;51.202;6.774;2024-01-11T15:57:12;20.00;54.00
29775;DHT22;16676;51.202;6.774;2024-01-11T16:01:14;20.10;54.00
29775;DHT22;16676;51.202;6.774;2024-01-11T16:05:16;20.00;54.00
29775;DHT22;16676;51.202;6.774;2024-01-11T16:09:18;20.00;54.30
29775;DHT22;16676;51.202;6.774;2024-01-11T16:13:21;20.00;54.30
29775;DHT22;16676;51.202;6.774;2024-01-11T16:17:23;20.00;54.10
29775;DHT22;16676;51.202;6.774;2024-01-11T16:21:25;20.00;53.10
29775;DHT22;16676;51.202;6.774;2024-01-11T16:25:29;19.80;48.00
29775;DHT22;16676;51.202;6.774;2024-01-11T16:29:32;19.60;45.60
29775;DHT22;16676;51.202;6.774;2024-01-11T16:33:34;19.50;45.50
29775;DHT22;16676;51.202;6.774;2024-01-11T16:37:36;19.30;47.40
29775;DHT22;16676;51.202;6.774;2024-01-11T16:41:38;19.30;48.20
29775;DHT22;16676;51.202;6.774;2024-01-11T16:45:42;19.30;49.30
29775;DHT22;16676;51.202;6.774;2024-01-11T16:49:44;19.30;49.70
29775;DHT22;16676;51.202;6.774;2024-01-11T16:53:46;19.20;49.90
29775;DHT22;16676;51.202;6.774;2024-01-11T16:57:48;19.20;50.10
29775;DHT22;16676;51.202;6.774;2024-01-11T17:01:51;19.20;50.20
29775;DHT22;16676;51.202;6.774;2024-01-11T17:05:53;19.10;50.20
29775;DHT22;16676;51.202;6.774;2024-01-11T17:09:55;19.10;50.70
29775;DHT22;16676;51.202;6.774;2024-01-11T17:13:57;19.10;50.50
29775;DHT22;16676;51.202;6.774;2024-01-11T17:18:00;19.00;51.00
29775;DHT22;16676;51.202;6.774;2024-01-11T17:22:02;19.00;51.20
29775;DHT22;16676;51.202;6.774;2024-01-11T17:26:04;19.00;51.40
29775;DHT22;16676;51.202;6.774;2024-01-11T17:30:07;18.90;51.60
29775;DHT22;16676;51.202;6.774;2024-01-11T17:34:11;18.90;51.60
29775;DHT22;16676;51.202;6.774;2024-01-11T17:38:13;18.90;51.80
29775;DHT22;16676;51.202;6.774;2024-01-11T17:42:15;18.80;52.00
29775;DHT22;16676;51.202;6.774;2024-01-11T17:46:21;18.80;52.50
29775;DHT22;16676;51.202;6.774;2024-01-11T17:50:24;18.80;52.90
29775;DHT22;16676;51.202;6.774;2024-01-11T17:54:26;18.70;53.00
29775;DHT22;16676;51.202;6.774;2024-01-11T17:58:28;18.70;53.10
29775;DHT22;16676;51.202;6.774;2024-01-11T18:02:30;18.70;53.50
29775;DHT22;16676;51.202;6.774;2024-01-11T18:06:34;18.70;53.40
29775;DHT22;16676;51.202;6.774;2024-01-11T18:10:36;18.70;53.10
29775;DHT22;16676;51.202;6.774;2024-01-11T18:14:39;18.70;53.30
29775;DHT22;16676;51.202;6.774;2024-01-11T18:18:41;18.70;53.60
29775;DHT22;16676;51.202;6.774;2024-01-11T18:22:45;18.60;53.50
29775;DHT22;16676;51.202;6.774;2024-01-11T18:26:48;18.70;53.10
29775;DHT22;16676;51.202;6.774;2024-01-11T18:30:50;18.60;54.20
29775;DHT22;16676;51.202;6.774;2024-01-11T18:34:52;18.60;53.50
29775;DHT22;16676;51.202;6.774;2024-01-11T18:38:55;18.60;53.90
29775;DHT22;16676;51.202;6.774;2024-01-11T18:42:59;18.50;53.80
29775;DHT22;16676;51.202;6.774;2024-01-11T18:47:01;18.50;53.90
29775;DHT22;16676;51.202;6.774;2024-01-11T18:51:04;18.50;54.00
29775;DHT22;16676;51.202;6.774;2024-01-11T18:55:09;18.50;54.10
29775;DHT22;16676;51.202;6.774;2024-01-11T18:59:11;18.50;54.10
29775;DHT22;16676;51.202;6.774;2024-01-11T19:03:13;18.40;54.30
29775;DHT22;16676;51.202;6.774;2024-01-11T19:07:15;18.40;54.80
29775;DHT22;16676;51.202;6.774;2024-01-11T19:11:18;18.30;55.60
29775;DHT22;16676;51.202;6.774;2024-01-11T19:15:21;18.30;56.00
29775;DHT22;16676;51.202;6.774;2024-01-11T19:19:23;18.30;56.40
29775;DHT22;16676;51.202;6.774;2024-01-11T19:23:24;18.30;57.40
29775;DHT22;16676;51.202;6.774;2024-01-11T19:27:28;18.30;57.50
29775;DHT22;16676;51.202;6.774;2024-01-11T19:31:30;18.30;57.70
29775;DHT22;16676;51.202;6.774;2024-01-11T19:35:32;18.20;57.80
29775;DHT22;16676;51.202;6.774;2024-01-11T19:39:34;18.20;57.70
29775;DHT22;16676;51.202;6.774;2024-01-11T19:43:38;18.20;58.10
29775;DHT22;16676;51.202;6.774;2024-01-11T19:47:46;18.30;58.00
29775;DHT22;16676;51.202;6.774;2024-01-11T19:51:48;18.20;58.40
29775;DHT22;16676;51.202;6.774;2024-01-11T19:55:49;18.20;58.20
29775;DHT22;16676;51.202;6.774;2024-01-11T19:59:53;18.10;59.50
29775;DHT22;16676;51.202;6.774;2024-01-11T20:03:55;18.20;60.80
29775;DHT22;16676;51.202;6.774;2024-01-11T20:07:58;18.10;59.30
29775;DHT22;16676;51.202;6.774;2024-01-11T20:12:00;18.30;58.70
29775;DHT22;16676;51.202;6.774;2024-01-11T20:16:03;18.20;58.60
29775;DHT22;16676;51.202;6.774;2024-01-11T20:20:06;18.20;58.10
29775;DHT22;16676;51.202;6.774;2024-01-11T20:24:08;18.20;58.40
29775;DHT22;16676;51.202;6.774;2024-01-11T20:28:10;18.20;58.60
29775;DHT22;16676;51.202;6.774;2024-01-11T20:32:14;18.20;58.30
29775;DHT22;16676;51.202;6.774;2024-01-11T20:36:15;18.20;57.80
29775;DHT22;16676;51.202;6.774;2024-01-11T20:40:17;18.10;58.20
29775;DHT22;16676;51.202;6.774;2024-01-11T20:44:19;18.20;58.70
29775;DHT22;16676;51.202;6.774;2024-01-11T20:48:23;18.20;58.60
29775;DHT22;16676;51.202;6.774;2024-01-11T20:52:25;18.10;58.50
29775;DHT22;16676;51.202;6.774;2024-01-11T20:56:28;18.10;59.00
29775;DHT22;16676;51.202;6.774;2024-01-11T21:00:32;18.10;58.40
29775;DHT22;16676;51.202;6.774;2024-01-11T21:04:36;18.10;58.40
29775;DHT22;16676;51.202;6.774;2024-01-11T21:08:37;18.00;58.70
29775;DHT22;16676;51.202;6.774;2024-01-11T21:12:39;18.00;58.70
29775;DHT22;16676;51.202;6.774;2024-01-11T21:16:41;18.00;59.00
29775;DHT22;16676;51.202;6.774;2024-01-11T21:20:45;18.10;59.10
29775;DHT22;16676;51.202;6.774;2024-01-11T21:24:47;18.00;60.20
29775;DHT22;16676;51.202;6.774;2024-01-11T21:28:49;18.00;61.50
29775;DHT22;16676;51.202;6.774;2024-01-11T21:32:54;17.90;62.10
29775;DHT22;16676;51.202;6.774;2024-01-11T21:36:57;18.00;62.10
29775;DHT22;16676;51.202;6.774;2024-01-11T21:40:59;18.10;62.00
29775;DHT22;16676;51.202;6.774;2024-01-11T21:45:01;18.10;61.70
29775;DHT22;16676;51.202;6.774;2024-01-11T21:49:04;18.10;61.50
29775;DHT22;16676;51.202;6.774;2024-01-11T21:53:07;18.10;61.50
29775;DHT22;16676;51.202;6.774;2024-01-11T21:57:09;18.10;61.50
29775;DHT22;16676;51.202;6.774;2024-01-11T22:01:11;18.20;61.60
29775;DHT22;16676;51.202;6.774;2024-01-11T22:05:12;18.20;61.60
29775;DHT22;16676;51.202;6.774;2024-01-11T22:09:16;18.10;62.30
29775;DHT22;16676;51.202;6.774;2024-01-11T22:13:18;18.10;61.50
29775;DHT22;16676;51.202;6.774;2024-01-11T22:17:20;18.20;61.50
29775;DHT22;16676;51.202;6.774;2024-01-11T22:21:22;18.10;61.50
29775;DHT22;16676;51.202;6.774;2024-01-11T22:25:27;18.10;61.60
29775;DHT22;16676;51.202;6.774;2024-01-11T22:29:29;18.10;61.50
29775;DHT22;16676;51.202;6.774;2024-01-11T22:33:30;18.10;61.60
29775;DHT22;16676;51.202;6.774;2024-01-11T22:37:32;18.10;62.30
29775;DHT22;16676;51.202;6.774;2024-01-11T22:41:39;18.00;61.60
29775;DHT22;16676;51.202;6.774;2024-01-11T22:45:41;18.00;61.50
29775;DHT22;16676;51.202;6.774;2024-01-11T22:49:43;18.00;61.70
29775;DHT22;16676;51.202;6.774;2024-01-11T22:53:44;17.90;61.70
29775;DHT22;16676;51.202;6.774;2024-01-11T22:57:48;18.00;61.70
29775;DHT22;16676;51.202;6.774;2024-01-11T23:01:50;17.90;61.60
29775;DHT22;16676;51.202;6.774;2024-01-11T23:05:52;17.90;61.60
29775;DHT22;16676;51.202;6.774;2024-01-11T23:09:54;17.90;61.60
29775;DHT22;16676;51.202;6.774;2024-01-11T23:13:57;17.90;61.60
29775;DHT22;16676;51.202;6.774;2024-01-11T23:17:59;17.80;61.40
29775;DHT22;16676;51.202;6.774;2024-01-11T23:22:01;17.80;61.50
29775;DHT22;16676;51.202;6.774;2024-01-11T23:26:04;17.80;61.50
29775;DHT22;16676;51.202;6.774;2024-01-11T23:30:08;17.80;61.60
29775;DHT22;16676;51.202;6.774;2024-01-11T23:34:10;17.70;61.50
29775;DHT22;16676;51.202;6.774;2024-01-11T23:38:12;17.70;61.60
29775;DHT22;16676;51.202;6.774;2024-01-11T23:42:14;17.60;61.80
29775;DHT22;16676;51.202;6.774;2024-01-11T23:46:17;17.60;61.90
29775;DHT22;16676;51.202;6.774;2024-01-11T23:50:19;17.60;61.90
29775;DHT22;16676;51.202;6.774;2024-01-11T23:54:21;17.50;61.80
29775;DHT22;16676;51.202;6.774;2024-01-11T23:58:23;17.50;61.90
